sensor_id;sensor_type;location;lat;lon;timestamp;P1;durP1;ratioP1;P2;durP2;ratioP2
12721;SDS011;6425;50.316;8.114;2023-08-07T00:00:00;5.1;;;1.5;;
12721;SDS011;6425;50.316;8.114;2023-08-07T00:03:00;4.8;;;1.4;;
12721;SDS011;6425;50.316;8.114;2023-08-07T00:06:00;4.8;;;1.4;;
12721;SDS011;6425;50.316;8.114;2023-08-07T00:09:00;6.1;;;1.9;;
12721;SDS011;6425;50.316;8.114;2023-08-07T00:12:00;6.1;;;1.9;;
12721;SDS011;6425;50.316;8.114;2023-08-07T00:15:00;4.2;;;1.2;;
12721;SDS011;6425;50.316;8.114;2023-08-07T00:18:00;6.6;;;1.6;;
12721;SDS011;6425;50.316;8.114;2023-08-07T00:21:00;6.6;;;1.6;;
12721;SDS011;6425;50.316;8.114;2023-08-07T00:24:00;3.6;;;1.3;;
12721;SDS011;6425;50.316;8.114;2023-08-07T00:27:00;3.6;;;1.3;;
12721;SDS011;6425;50.316;8.114;2023-08-07T00:30:00;5.5;;;1.6;;
12721;SDS011;6425;50.316;8.114;2023-08-07T00:33:00;6.7;;;1.7;;
12721;SDS011;6425;50.316;8.114;2023-08-07T00:36:00;6.7;;;1.7;;
12721;SDS011;6425;50.316;8.114;2023-08-07T00:39:00;6.4;;;1.8;;
12721;SDS011;6425;50.316;8.114;2023-08-07T00:42:00;6.4;;;1.8;;
12721;SDS011;6425;50.316;8.114;2023-08-07T00:45:00;5.1;;;1.7;;
12721;SDS011;6425;50.316;8.114;2023-08-07T00:48:00;7;;;2;;
12721;SDS011;6425;50.316;8.114;2023-08-07T00:51:00;7;;;2;;
12721;SDS011;6425;50.316;8.114;2023-08-07T00:54:00;8;;;1.9;;
12721;SDS011;6425;50.316;8.114;2023-08-07T00:57:01;8;;;1.9;;
12721;SDS011;6425;50.316;8.114;2023-08-07T01:00:00;8.9;;;1.8;;
12721;SDS011;6425;50.316;8.114;2023-08-07T01:03:00;7.3;;;1.8;;
12721;SDS011;6425;50.316;8.114;2023-08-07T01:06:00;7.3;;;1.8;;
12721;SDS011;6425;50.316;8.114;2023-08-07T01:09:00;9.8;;;2.3;;
12721;SDS011;6425;50.316;8.114;2023-08-07T01:12:02;9.8;;;2.3;;
12721;SDS011;6425;50.316;8.114;2023-08-07T01:15:02;7.1;;;1.8;;
12721;SDS011;6425;50.316;8.114;2023-08-07T01:18:00;9.5;;;2.7;;
12721;SDS011;6425;50.316;8.114;2023-08-07T01:21:00;9.5;;;2.7;;
12721;SDS011;6425;50.316;8.114;2023-08-07T01:24:00;8.4;;;2.4;;
12721;SDS011;6425;50.316;8.114;2023-08-07T01:27:00;8.4;;;2.4;;
12721;SDS011;6425;50.316;8.114;2023-08-07T01:30:02;9.9;;;2.4;;
12721;SDS011;6425;50.316;8.114;2023-08-07T01:33:03;8;;;2;;
12721;SDS011;6425;50.316;8.114;2023-08-07T01:36:01;8;;;2;;
12721;SDS011;6425;50.316;8.114;2023-08-07T01:39:00;5.5;;;1.7;;
12721;SDS011;6425;50.316;8.114;2023-08-07T01:42:00;5.5;;;1.7;;
12721;SDS011;6425;50.316;8.114;2023-08-07T01:45:00;6;;;1.9;;
12721;SDS011;6425;50.316;8.114;2023-08-07T01:48:00;7.6;;;2.1;;
12721;SDS011;6425;50.316;8.114;2023-08-07T01:51:00;7.6;;;2.1;;
12721;SDS011;6425;50.316;8.114;2023-08-07T01:54:00;7.6;;;2.1;;
12721;SDS011;6425;50.316;8.114;2023-08-07T01:57:00;7.6;;;2.1;;
12721;SDS011;6425;50.316;8.114;2023-08-07T02:00:00;6.6;;;1.9;;
12721;SDS011;6425;50.316;8.114;2023-08-07T02:03:00;5.5;;;1.8;;
12721;SDS011;6425;50.316;8.114;2023-08-07T02:06:00;5.5;;;1.8;;
12721;SDS011;6425;50.316;8.114;2023-08-07T02:09:00;5.9;;;2;;
12721;SDS011;6425;50.316;8.114;2023-08-07T02:12:00;5.9;;;2;;
12721;SDS011;6425;50.316;8.114;2023-08-07T02:15:00;5.1;;;2.2;;
12721;SDS011;6425;50.316;8.114;2023-08-07T02:18:00;6.8;;;2.3;;
12721;SDS011;6425;50.316;8.114;2023-08-07T02:21:00;6.8;;;2.3;;
12721;SDS011;6425;50.316;8.114;2023-08-07T02:24:00;6.7;;;2.6;;
12721;SDS011;6425;50.316;8.114;2023-08-07T02:27:00;6.7;;;2.6;;
12721;SDS011;6425;50.316;8.114;2023-08-07T02:30:00;5.2;;;1.8;;
12721;SDS011;6425;50.316;8.114;2023-08-07T02:33:00;6.3;;;2.2;;
12721;SDS011;6425;50.316;8.114;2023-08-07T02:36:00;6.3;;;2.2;;
12721;SDS011;6425;50.316;8.114;2023-08-07T02:39:00;8.5;;;3.1;;
12721;SDS011;6425;50.316;8.114;2023-08-07T02:42:00;8.5;;;3.1;;
12721;SDS011;6425;50.316;8.114;2023-08-07T02:45:00;8.5;;;3;;
12721;SDS011;6425;50.316;8.114;2023-08-07T02:48:00;7.5;;;3;;
12721;SDS011;6425;50.316;8.114;2023-08-07T02:51:00;7.5;;;3;;
12721;SDS011;6425;50.316;8.114;2023-08-07T02:54:00;5.3;;;3.1;;
12721;SDS011;6425;50.316;8.114;2023-08-07T02:57:00;5.3;;;3.1;;
12721;SDS011;6425;50.316;8.114;2023-08-07T03:00:00;6.2;;;2.8;;
12721;SDS011;6425;50.316;8.114;2023-08-07T03:03:00;9.8;;;3.4;;
12721;SDS011;6425;50.316;8.114;2023-08-07T03:06:00;9.8;;;3.4;;
12721;SDS011;6425;50.316;8.114;2023-08-07T03:09:00;10.5;;;3.3;;
12721;SDS011;6425;50.316;8.114;2023-08-07T03:12:00;10.5;;;3.3;;
12721;SDS011;6425;50.316;8.114;2023-08-07T03:15:00;7.8;;;2.9;;
12721;SDS011;6425;50.316;8.114;2023-08-07T03:18:00;8.9;;;4;;
12721;SDS011;6425;50.316;8.114;2023-08-07T03:21:00;8.9;;;4;;
12721;SDS011;6425;50.316;8.114;2023-08-07T03:24:00;7.3;;;3;;
12721;SDS011;6425;50.316;8.114;2023-08-07T03:27:00;7.7;;;3.1;;
12721;SDS011;6425;50.316;8.114;2023-08-07T03:30:00;9.1;;;3.5;;
12721;SDS011;6425;50.316;8.114;2023-08-07T03:33:00;8;;;3;;
12721;SDS011;6425;50.316;8.114;2023-08-07T03:36:00;8;;;3;;
12721;SDS011;6425;50.316;8.114;2023-08-07T03:39:00;8.9;;;2.8;;
12721;SDS011;6425;50.316;8.114;2023-08-07T03:42:00;7.4;;;2.8;;
12721;SDS011;6425;50.316;8.114;2023-08-07T03:45:00;7.4;;;2.8;;
12721;SDS011;6425;50.316;8.114;2023-08-07T03:48:00;5.4;;;2.6;;
12721;SDS011;6425;50.316;8.114;2023-08-07T03:51:03;5.4;;;2.6;;
12721;SDS011;6425;50.316;8.114;2023-08-07T03:54:00;4.5;;;2.1;;
12721;SDS011;6425;50.316;8.114;2023-08-07T03:57:00;6;;;2.6;;
12721;SDS011;6425;50.316;8.114;2023-08-07T04:00:00;6;;;2.6;;
12721;SDS011;6425;50.316;8.114;2023-08-07T04:03:00;7.4;;;3.3;;
12721;SDS011;6425;50.316;8.114;2023-08-07T04:06:00;7.4;;;3.3;;
12721;SDS011;6425;50.316;8.114;2023-08-07T04:09:00;8.6;;;2.7;;
12721;SDS011;6425;50.316;8.114;2023-08-07T04:12:00;5.3;;;2.5;;
12721;SDS011;6425;50.316;8.114;2023-08-07T04:15:00;5.3;;;2.5;;
12721;SDS011;6425;50.316;8.114;2023-08-07T04:18:00;4.6;;;2.1;;
12721;SDS011;6425;50.316;8.114;2023-08-07T04:21:00;4.6;;;2.1;;
12721;SDS011;6425;50.316;8.114;2023-08-07T04:24:00;4.5;;;2.4;;
12721;SDS011;6425;50.316;8.114;2023-08-07T04:27:00;4.6;;;2.3;;
12721;SDS011;6425;50.316;8.114;2023-08-07T04:30:00;4.6;;;2.3;;
12721;SDS011;6425;50.316;8.114;2023-08-07T04:33:00;8.6;;;2.9;;
12721;SDS011;6425;50.316;8.114;2023-08-07T04:36:00;8.6;;;2.9;;
12721;SDS011;6425;50.316;8.114;2023-08-07T04:39:00;6.9;;;2.8;;
12721;SDS011;6425;50.316;8.114;2023-08-07T04:42:00;8.3;;;2.8;;
12721;SDS011;6425;50.316;8.114;2023-08-07T04:45:00;8.3;;;2.8;;
12721;SDS011;6425;50.316;8.114;2023-08-07T04:48:00;7.1;;;3.2;;
12721;SDS011;6425;50.316;8.114;2023-08-07T04:51:00;7.1;;;3.2;;
12721;SDS011;6425;50.316;8.114;2023-08-07T04:54:00;7.8;;;2.2;;
12721;SDS011;6425;50.316;8.114;2023-08-07T04:57:00;6.9;;;2.1;;
12721;SDS011;6425;50.316;8.114;2023-08-07T05:00:00;6.9;;;2.1;;
12721;SDS011;6425;50.316;8.114;2023-08-07T05:03:00;8.2;;;2.9;;
12721;SDS011;6425;50.316;8.114;2023-08-07T05:06:00;8.2;;;2.9;;
12721;SDS011;6425;50.316;8.114;2023-08-07T05:09:00;7.6;;;2.8;;
12721;SDS011;6425;50.316;8.114;2023-08-07T05:12:00;4.9;;;2.3;;
12721;SDS011;6425;50.316;8.114;2023-08-07T05:15:00;4.9;;;2.3;;
12721;SDS011;6425;50.316;8.114;2023-08-07T05:18:00;8.6;;;2.7;;
12721;SDS011;6425;50.316;8.114;2023-08-07T05:21:00;8.6;;;2.7;;
12721;SDS011;6425;50.316;8.114;2023-08-07T05:24:00;8.2;;;2.9;;
12721;SDS011;6425;50.316;8.114;2023-08-07T05:27:00;10.5;;;3.9;;
12721;SDS011;6425;50.316;8.114;2023-08-07T05:30:00;10.5;;;3.9;;
12721;SDS011;6425;50.316;8.114;2023-08-07T05:33:00;6.1;;;2.7;;
12721;SDS011;6425;50.316;8.114;2023-08-07T05:36:00;6.1;;;2.7;;
12721;SDS011;6425;50.316;8.114;2023-08-07T05:39:00;6.6;;;3.1;;
12721;SDS011;6425;50.316;8.114;2023-08-07T05:42:00;8.1;;;4.3;;
12721;SDS011;6425;50.316;8.114;2023-08-07T05:45:00;8.1;;;4.3;;
12721;SDS011;6425;50.316;8.114;2023-08-07T05:48:00;8.5;;;3.3;;
12721;SDS011;6425;50.316;8.114;2023-08-07T05:51:00;8.5;;;3.3;;
12721;SDS011;6425;50.316;8.114;2023-08-07T05:54:00;6.2;;;2.9;;
12721;SDS011;6425;50.316;8.114;2023-08-07T05:57:00;6;;;3;;
12721;SDS011;6425;50.316;8.114;2023-08-07T06:00:00;6;;;3;;
12721;SDS011;6425;50.316;8.114;2023-08-07T06:03:00;6.7;;;3.3;;
12721;SDS011;6425;50.316;8.114;2023-08-07T06:06:00;6.7;;;3.3;;
12721;SDS011;6425;50.316;8.114;2023-08-07T06:09:00;5.5;;;2.6;;
12721;SDS011;6425;50.316;8.114;2023-08-07T06:12:00;6.7;;;3.1;;
12721;SDS011;6425;50.316;8.114;2023-08-07T06:15:00;6.7;;;3.1;;
12721;SDS011;6425;50.316;8.114;2023-08-07T06:18:00;5.8;;;3;;
12721;SDS011;6425;50.316;8.114;2023-08-07T06:21:00;5.8;;;3;;
12721;SDS011;6425;50.316;8.114;2023-08-07T06:24:00;5.9;;;2.6;;
12721;SDS011;6425;50.316;8.114;2023-08-07T06:27:01;7.8;;;3.3;;
12721;SDS011;6425;50.316;8.114;2023-08-07T06:30:00;7.8;;;3.3;;
12721;SDS011;6425;50.316;8.114;2023-08-07T06:33:00;6.9;;;3.4;;
12721;SDS011;6425;50.316;8.114;2023-08-07T06:36:00;6.9;;;3.4;;
12721;SDS011;6425;50.316;8.114;2023-08-07T06:39:00;8.3;;;2.8;;
12721;SDS011;6425;50.316;8.114;2023-08-07T06:42:00;8.6;;;3.1;;
12721;SDS011;6425;50.316;8.114;2023-08-07T06:45:00;8.6;;;3.1;;
12721;SDS011;6425;50.316;8.114;2023-08-07T06:48:00;15.1;;;2.4;;
12721;SDS011;6425;50.316;8.114;2023-08-07T06:51:00;15.1;;;2.4;;
12721;SDS011;6425;50.316;8.114;2023-08-07T06:54:00;5.5;;;2.8;;
12721;SDS011;6425;50.316;8.114;2023-08-07T06:57:00;10.6;;;2.8;;
12721;SDS011;6425;50.316;8.114;2023-08-07T07:00:00;10.6;;;2.8;;
12721;SDS011;6425;50.316;8.114;2023-08-07T07:03:00;7.9;;;2.4;;
12721;SDS011;6425;50.316;8.114;2023-08-07T07:06:00;8.4;;;2.5;;
12721;SDS011;6425;50.316;8.114;2023-08-07T07:09:00;9.9;;;2.8;;
12721;SDS011;6425;50.316;8.114;2023-08-07T07:12:00;12;;;3.1;;
12721;SDS011;6425;50.316;8.114;2023-08-07T07:15:00;12;;;3.1;;
12721;SDS011;6425;50.316;8.114;2023-08-07T07:18:00;8.8;;;2.6;;
12721;SDS011;6425;50.316;8.114;2023-08-07T07:21:00;7.4;;;2.8;;
12721;SDS011;6425;50.316;8.114;2023-08-07T07:24:00;7.4;;;2.8;;
12721;SDS011;6425;50.316;8.114;2023-08-07T07:27:00;5.6;;;2.3;;
12721;SDS011;6425;50.316;8.114;2023-08-07T07:30:00;5.6;;;2.3;;
12721;SDS011;6425;50.316;8.114;2023-08-07T07:33:00;9.6;;;2.7;;
12721;SDS011;6425;50.316;8.114;2023-08-07T07:36:00;9.5;;;2.8;;
12721;SDS011;6425;50.316;8.114;2023-08-07T07:39:00;9.5;;;2.8;;
12721;SDS011;6425;50.316;8.114;2023-08-07T07:42:00;5.9;;;2.7;;
12721;SDS011;6425;50.316;8.114;2023-08-07T07:45:00;5.9;;;2.7;;
12721;SDS011;6425;50.316;8.114;2023-08-07T07:48:00;7.7;;;3;;
12721;SDS011;6425;50.316;8.114;2023-08-07T07:51:00;7.2;;;2.4;;
12721;SDS011;6425;50.316;8.114;2023-08-07T07:54:00;7.2;;;2.4;;
12721;SDS011;6425;50.316;8.114;2023-08-07T07:57:00;6.9;;;2.7;;
12721;SDS011;6425;50.316;8.114;2023-08-07T08:00:00;6.9;;;2.7;;
12721;SDS011;6425;50.316;8.114;2023-08-07T08:03:00;7.4;;;2.9;;
12721;SDS011;6425;50.316;8.114;2023-08-07T08:06:00;5.1;;;2.1;;
12721;SDS011;6425;50.316;8.114;2023-08-07T08:09:00;5.1;;;2.1;;
12721;SDS011;6425;50.316;8.114;2023-08-07T08:12:00;8.6;;;2.5;;
12721;SDS011;6425;50.316;8.114;2023-08-07T08:15:00;8.6;;;2.5;;
12721;SDS011;6425;50.316;8.114;2023-08-07T08:18:00;7.3;;;2.8;;
12721;SDS011;6425;50.316;8.114;2023-08-07T08:21:00;5.5;;;1.8;;
12721;SDS011;6425;50.316;8.114;2023-08-07T08:24:00;5.5;;;1.8;;
12721;SDS011;6425;50.316;8.114;2023-08-07T08:27:00;6.5;;;2.3;;
12721;SDS011;6425;50.316;8.114;2023-08-07T08:30:00;6.5;;;2.3;;
12721;SDS011;6425;50.316;8.114;2023-08-07T08:33:00;4.5;;;2;;
12721;SDS011;6425;50.316;8.114;2023-08-07T08:36:00;7.4;;;3.1;;
12721;SDS011;6425;50.316;8.114;2023-08-07T08:39:00;7.4;;;3.1;;
12721;SDS011;6425;50.316;8.114;2023-08-07T08:42:00;5.7;;;2.7;;
12721;SDS011;6425;50.316;8.114;2023-08-07T08:45:00;5.7;;;2.7;;
12721;SDS011;6425;50.316;8.114;2023-08-07T08:48:00;5.7;;;2.8;;
12721;SDS011;6425;50.316;8.114;2023-08-07T08:51:00;5.5;;;2.4;;
12721;SDS011;6425;50.316;8.114;2023-08-07T08:54:00;5.5;;;2.4;;
12721;SDS011;6425;50.316;8.114;2023-08-07T08:57:00;5.8;;;1.8;;
12721;SDS011;6425;50.316;8.114;2023-08-07T09:00:00;5.8;;;1.8;;
12721;SDS011;6425;50.316;8.114;2023-08-07T09:03:00;4.4;;;2.1;;
12721;SDS011;6425;50.316;8.114;2023-08-07T09:06:00;4.3;;;1.6;;
12721;SDS011;6425;50.316;8.114;2023-08-07T09:09:00;4.3;;;1.6;;
12721;SDS011;6425;50.316;8.114;2023-08-07T09:12:00;2.9;;;1.4;;
12721;SDS011;6425;50.316;8.114;2023-08-07T09:15:02;2.9;;;1.4;;
12721;SDS011;6425;50.316;8.114;2023-08-07T09:18:00;3.6;;;1.2;;
12721;SDS011;6425;50.316;8.114;2023-08-07T09:21:00;5.2;;;1.6;;
12721;SDS011;6425;50.316;8.114;2023-08-07T09:24:00;5.2;;;1.6;;
12721;SDS011;6425;50.316;8.114;2023-08-07T09:27:00;3.3;;;1.6;;
12721;SDS011;6425;50.316;8.114;2023-08-07T09:30:00;3.3;;;1.6;;
12721;SDS011;6425;50.316;8.114;2023-08-07T09:33:00;3;;;1.5;;
12721;SDS011;6425;50.316;8.114;2023-08-07T09:36:00;2.4;;;1.2;;
12721;SDS011;6425;50.316;8.114;2023-08-07T09:39:00;2.4;;;1.2;;
12721;SDS011;6425;50.316;8.114;2023-08-07T09:42:00;2.3;;;1.4;;
12721;SDS011;6425;50.316;8.114;2023-08-07T09:45:00;2.3;;;1.4;;
12721;SDS011;6425;50.316;8.114;2023-08-07T09:48:00;4;;;1.8;;
12721;SDS011;6425;50.316;8.114;2023-08-07T09:51:00;4.1;;;1.4;;
12721;SDS011;6425;50.316;8.114;2023-08-07T09:54:00;4.1;;;1.4;;
12721;SDS011;6425;50.316;8.114;2023-08-07T09:57:00;5.5;;;2.1;;
12721;SDS011;6425;50.316;8.114;2023-08-07T10:00:00;5.5;;;2.1;;
12721;SDS011;6425;50.316;8.114;2023-08-07T10:03:00;4.9;;;2;;
12721;SDS011;6425;50.316;8.114;2023-08-07T10:06:00;7.5;;;2.7;;
12721;SDS011;6425;50.316;8.114;2023-08-07T10:09:00;7.5;;;2.7;;
12721;SDS011;6425;50.316;8.114;2023-08-07T10:12:00;6.5;;;2.4;;
12721;SDS011;6425;50.316;8.114;2023-08-07T10:15:00;6.5;;;2.4;;
12721;SDS011;6425;50.316;8.114;2023-08-07T10:18:00;8.4;;;3.1;;
12721;SDS011;6425;50.316;8.114;2023-08-07T10:21:00;9.1;;;3;;
12721;SDS011;6425;50.316;8.114;2023-08-07T10:24:00;9.1;;;3;;
12721;SDS011;6425;50.316;8.114;2023-08-07T10:27:00;8.1;;;2.1;;
12721;SDS011;6425;50.316;8.114;2023-08-07T10:30:00;8.1;;;2.1;;
12721;SDS011;6425;50.316;8.114;2023-08-07T10:33:00;7.9;;;2.8;;
12721;SDS011;6425;50.316;8.114;2023-08-07T10:36:00;3;;;1.9;;
12721;SDS011;6425;50.316;8.114;2023-08-07T10:39:05;3;;;1.9;;
12721;SDS011;6425;50.316;8.114;2023-08-07T10:42:00;6.1;;;2.6;;
12721;SDS011;6425;50.316;8.114;2023-08-07T10:45:00;6.1;;;2.6;;
12721;SDS011;6425;50.316;8.114;2023-08-07T10:48:01;5.3;;;2.1;;
12721;SDS011;6425;50.316;8.114;2023-08-07T10:51:03;8.5;;;2.6;;
12721;SDS011;6425;50.316;8.114;2023-08-07T10:54:00;8.5;;;2.6;;
12721;SDS011;6425;50.316;8.114;2023-08-07T10:57:00;6.4;;;1.9;;
12721;SDS011;6425;50.316;8.114;2023-08-07T11:00:01;6.5;;;2.2;;
12721;SDS011;6425;50.316;8.114;2023-08-07T11:03:00;6.7;;;2.5;;
12721;SDS011;6425;50.316;8.114;2023-08-07T11:06:00;4.3;;;2;;
12721;SDS011;6425;50.316;8.114;2023-08-07T11:09:00;4.3;;;2;;
12721;SDS011;6425;50.316;8.114;2023-08-07T11:12:00;4.8;;;2.1;;
12721;SDS011;6425;50.316;8.114;2023-08-07T11:15:00;4.5;;;2.2;;
12721;SDS011;6425;50.316;8.114;2023-08-07T11:18:00;4.5;;;2.2;;
12721;SDS011;6425;50.316;8.114;2023-08-07T11:21:00;6;;;2.3;;
12721;SDS011;6425;50.316;8.114;2023-08-07T11:24:00;6;;;2.3;;
12721;SDS011;6425;50.316;8.114;2023-08-07T11:27:00;6.1;;;2.2;;
12721;SDS011;6425;50.316;8.114;2023-08-07T11:30:00;7.4;;;2.5;;
12721;SDS011;6425;50.316;8.114;2023-08-07T11:33:00;7.4;;;2.5;;
12721;SDS011;6425;50.316;8.114;2023-08-07T11:36:00;5.2;;;1.9;;
12721;SDS011;6425;50.316;8.114;2023-08-07T11:39:00;5.2;;;1.9;;
12721;SDS011;6425;50.316;8.114;2023-08-07T11:42:00;5.4;;;1.9;;
12721;SDS011;6425;50.316;8.114;2023-08-07T11:45:01;3.9;;;2;;
12721;SDS011;6425;50.316;8.114;2023-08-07T11:48:00;3.9;;;2;;
12721;SDS011;6425;50.316;8.114;2023-08-07T11:51:00;5.8;;;1.9;;
12721;SDS011;6425;50.316;8.114;2023-08-07T11:54:00;5.8;;;1.9;;
12721;SDS011;6425;50.316;8.114;2023-08-07T11:57:00;3.5;;;1.5;;
12721;SDS011;6425;50.316;8.114;2023-08-07T12:00:00;3.6;;;1.7;;
12721;SDS011;6425;50.316;8.114;2023-08-07T12:03:00;3.6;;;1.7;;
12721;SDS011;6425;50.316;8.114;2023-08-07T12:06:02;3.2;;;1.7;;
12721;SDS011;6425;50.316;8.114;2023-08-07T12:09:00;3.2;;;1.7;;
12721;SDS011;6425;50.316;8.114;2023-08-07T12:12:00;7.3;;;2.1;;
12721;SDS011;6425;50.316;8.114;2023-08-07T12:15:00;5.2;;;2.1;;
12721;SDS011;6425;50.316;8.114;2023-08-07T12:18:00;5.2;;;2.1;;
12721;SDS011;6425;50.316;8.114;2023-08-07T12:21:00;5.8;;;2.2;;
12721;SDS011;6425;50.316;8.114;2023-08-07T12:24:00;5.8;;;2.2;;
12721;SDS011;6425;50.316;8.114;2023-08-07T12:27:00;4.6;;;1.9;;
12721;SDS011;6425;50.316;8.114;2023-08-07T12:30:00;5.3;;;2.1;;
12721;SDS011;6425;50.316;8.114;2023-08-07T12:33:00;5.3;;;2.1;;
12721;SDS011;6425;50.316;8.114;2023-08-07T12:36:00;4;;;1.7;;
12721;SDS011;6425;50.316;8.114;2023-08-07T12:39:00;4;;;1.7;;
12721;SDS011;6425;50.316;8.114;2023-08-07T12:42:00;4.5;;;2.1;;
12721;SDS011;6425;50.316;8.114;2023-08-07T12:45:00;5.1;;;2.2;;
12721;SDS011;6425;50.316;8.114;2023-08-07T12:48:00;5.1;;;2.2;;
12721;SDS011;6425;50.316;8.114;2023-08-07T12:51:00;4.2;;;1.6;;
12721;SDS011;6425;50.316;8.114;2023-08-07T12:54:00;4.2;;;1.6;;
12721;SDS011;6425;50.316;8.114;2023-08-07T12:57:00;2.8;;;1.7;;
12721;SDS011;6425;50.316;8.114;2023-08-07T13:00:00;4.9;;;1.6;;
12721;SDS011;6425;50.316;8.114;2023-08-07T13:03:00;4.9;;;1.6;;
12721;SDS011;6425;50.316;8.114;2023-08-07T13:06:00;3.9;;;1.8;;
12721;SDS011;6425;50.316;8.114;2023-08-07T13:09:00;3.9;;;1.8;;
12721;SDS011;6425;50.316;8.114;2023-08-07T13:12:00;3.5;;;1.6;;
12721;SDS011;6425;50.316;8.114;2023-08-07T13:15:00;4.4;;;1.9;;
12721;SDS011;6425;50.316;8.114;2023-08-07T13:18:00;4.4;;;1.9;;
12721;SDS011;6425;50.316;8.114;2023-08-07T13:21:00;4.3;;;1.6;;
12721;SDS011;6425;50.316;8.114;2023-08-07T13:24:00;4.3;;;1.6;;
12721;SDS011;6425;50.316;8.114;2023-08-07T13:27:00;3.2;;;1.4;;
12721;SDS011;6425;50.316;8.114;2023-08-07T13:30:00;4.1;;;1.4;;
12721;SDS011;6425;50.316;8.114;2023-08-07T13:33:00;4.1;;;1.4;;
12721;SDS011;6425;50.316;8.114;2023-08-07T13:36:00;4.8;;;1.6;;
12721;SDS011;6425;50.316;8.114;2023-08-07T13:39:00;4.8;;;1.6;;
12721;SDS011;6425;50.316;8.114;2023-08-07T13:42:00;2.9;;;1.5;;
12721;SDS011;6425;50.316;8.114;2023-08-07T13:45:00;2.4;;;1.6;;
12721;SDS011;6425;50.316;8.114;2023-08-07T13:48:00;2.4;;;1.6;;
12721;SDS011;6425;50.316;8.114;2023-08-07T13:51:00;5.3;;;1.7;;
12721;SDS011;6425;50.316;8.114;2023-08-07T13:54:00;5.3;;;1.7;;
12721;SDS011;6425;50.316;8.114;2023-08-07T13:57:00;4.3;;;1.8;;
12721;SDS011;6425;50.316;8.114;2023-08-07T14:00:00;11.4;;;2.5;;
12721;SDS011;6425;50.316;8.114;2023-08-07T14:03:00;11.4;;;2.5;;
12721;SDS011;6425;50.316;8.114;2023-08-07T14:06:00;3.9;;;1.8;;
12721;SDS011;6425;50.316;8.114;2023-08-07T14:09:00;3.9;;;1.8;;
12721;SDS011;6425;50.316;8.114;2023-08-07T14:12:00;3;;;1.7;;
12721;SDS011;6425;50.316;8.114;2023-08-07T14:15:00;3.4;;;1.7;;
12721;SDS011;6425;50.316;8.114;2023-08-07T14:18:00;3.4;;;1.7;;
12721;SDS011;6425;50.316;8.114;2023-08-07T14:21:00;4.9;;;2;;
12721;SDS011;6425;50.316;8.114;2023-08-07T14:24:00;4.9;;;2;;
12721;SDS011;6425;50.316;8.114;2023-08-07T14:27:00;3.7;;;1.7;;
12721;SDS011;6425;50.316;8.114;2023-08-07T14:30:00;4.7;;;2;;
12721;SDS011;6425;50.316;8.114;2023-08-07T14:33:00;4.7;;;2;;
12721;SDS011;6425;50.316;8.114;2023-08-07T14:36:00;5.3;;;1.9;;
12721;SDS011;6425;50.316;8.114;2023-08-07T14:39:00;5.3;;;1.9;;
12721;SDS011;6425;50.316;8.114;2023-08-07T14:42:00;5.5;;;2.5;;
12721;SDS011;6425;50.316;8.114;2023-08-07T14:45:00;3.9;;;2.1;;
12721;SDS011;6425;50.316;8.114;2023-08-07T14:48:00;3.9;;;2.1;;
12721;SDS011;6425;50.316;8.114;2023-08-07T14:51:00;3.3;;;1.9;;
12721;SDS011;6425;50.316;8.114;2023-08-07T14:54:00;3.3;;;1.9;;
12721;SDS011;6425;50.316;8.114;2023-08-07T14:57:00;2.6;;;1.8;;
12721;SDS011;6425;50.316;8.114;2023-08-07T15:00:00;3.8;;;1.6;;
12721;SDS011;6425;50.316;8.114;2023-08-07T15:03:00;3.8;;;1.6;;
12721;SDS011;6425;50.316;8.114;2023-08-07T15:06:00;4;;;1.7;;
12721;SDS011;6425;50.316;8.114;2023-08-07T15:09:00;4;;;1.7;;
12721;SDS011;6425;50.316;8.114;2023-08-07T15:12:00;4;;;1.9;;
12721;SDS011;6425;50.316;8.114;2023-08-07T15:15:00;4.3;;;2.1;;
12721;SDS011;6425;50.316;8.114;2023-08-07T15:18:00;4.3;;;2.1;;
12721;SDS011;6425;50.316;8.114;2023-08-07T15:21:00;4.9;;;1.8;;
12721;SDS011;6425;50.316;8.114;2023-08-07T15:24:00;4.9;;;1.8;;
12721;SDS011;6425;50.316;8.114;2023-08-07T15:27:00;5.6;;;2.2;;
12721;SDS011;6425;50.316;8.114;2023-08-07T15:30:00;3.7;;;1.9;;
12721;SDS011;6425;50.316;8.114;2023-08-07T15:33:00;3.7;;;1.9;;
12721;SDS011;6425;50.316;8.114;2023-08-07T15:36:00;3.9;;;1.8;;
12721;SDS011;6425;50.316;8.114;2023-08-07T15:39:00;3.9;;;1.8;;
12721;SDS011;6425;50.316;8.114;2023-08-07T15:42:00;2.9;;;1.5;;
12721;SDS011;6425;50.316;8.114;2023-08-07T15:45:00;3.5;;;1.8;;
12721;SDS011;6425;50.316;8.114;2023-08-07T15:48:00;3.5;;;1.8;;
12721;SDS011;6425;50.316;8.114;2023-08-07T15:51:00;3.7;;;2.1;;
12721;SDS011;6425;50.316;8.114;2023-08-07T15:54:00;3.5;;;2;;
12721;SDS011;6425;50.316;8.114;2023-08-07T15:57:00;3.1;;;2;;
12721;SDS011;6425;50.316;8.114;2023-08-07T16:00:00;2.9;;;1.8;;
12721;SDS011;6425;50.316;8.114;2023-08-07T16:03:00;2.9;;;1.8;;
12721;SDS011;6425;50.316;8.114;2023-08-07T16:06:00;6.2;;;2.3;;
12721;SDS011;6425;50.316;8.114;2023-08-07T16:09:00;4.3;;;2;;
12721;SDS011;6425;50.316;8.114;2023-08-07T16:12:00;3.7;;;1.9;;
12721;SDS011;6425;50.316;8.114;2023-08-07T16:15:00;6;;;1.9;;
12721;SDS011;6425;50.316;8.114;2023-08-07T16:18:00;6;;;1.9;;
12721;SDS011;6425;50.316;8.114;2023-08-07T16:21:00;3.8;;;1.9;;
12721;SDS011;6425;50.316;8.114;2023-08-07T16:24:00;3.9;;;2.3;;
12721;SDS011;6425;50.316;8.114;2023-08-07T16:27:00;3.9;;;2.3;;
12721;SDS011;6425;50.316;8.114;2023-08-07T16:30:00;3.4;;;2;;
12721;SDS011;6425;50.316;8.114;2023-08-07T16:33:00;3.4;;;2;;
12721;SDS011;6425;50.316;8.114;2023-08-07T16:36:00;7.8;;;2.1;;
12721;SDS011;6425;50.316;8.114;2023-08-07T16:39:00;3.8;;;2.1;;
12721;SDS011;6425;50.316;8.114;2023-08-07T16:42:00;3.8;;;2.1;;
12721;SDS011;6425;50.316;8.114;2023-08-07T16:45:00;5;;;2.1;;
12721;SDS011;6425;50.316;8.114;2023-08-07T16:48:00;5;;;2.1;;
12721;SDS011;6425;50.316;8.114;2023-08-07T16:51:00;5;;;2.4;;
12721;SDS011;6425;50.316;8.114;2023-08-07T16:54:00;5.9;;;2.3;;
12721;SDS011;6425;50.316;8.114;2023-08-07T16:57:00;5.9;;;2.3;;
12721;SDS011;6425;50.316;8.114;2023-08-07T17:00:00;3.9;;;2;;
12721;SDS011;6425;50.316;8.114;2023-08-07T17:03:00;3.9;;;2;;
12721;SDS011;6425;50.316;8.114;2023-08-07T17:06:00;3.8;;;2;;
12721;SDS011;6425;50.316;8.114;2023-08-07T17:09:00;3;;;1.8;;
12721;SDS011;6425;50.316;8.114;2023-08-07T17:12:00;3;;;1.8;;
12721;SDS011;6425;50.316;8.114;2023-08-07T17:15:00;5;;;1.9;;
12721;SDS011;6425;50.316;8.114;2023-08-07T17:18:00;5;;;1.9;;
12721;SDS011;6425;50.316;8.114;2023-08-07T17:21:00;4.1;;;2.1;;
12721;SDS011;6425;50.316;8.114;2023-08-07T17:24:00;4.9;;;2.2;;
12721;SDS011;6425;50.316;8.114;2023-08-07T17:27:00;4.9;;;2.2;;
12721;SDS011;6425;50.316;8.114;2023-08-07T17:30:00;5.6;;;2.3;;
12721;SDS011;6425;50.316;8.114;2023-08-07T17:33:00;5.6;;;2.3;;
12721;SDS011;6425;50.316;8.114;2023-08-07T17:36:00;3;;;1.8;;
12721;SDS011;6425;50.316;8.114;2023-08-07T17:39:00;4.1;;;1.8;;
12721;SDS011;6425;50.316;8.114;2023-08-07T17:42:00;4.1;;;1.8;;
12721;SDS011;6425;50.316;8.114;2023-08-07T17:45:00;1.9;;;1.3;;
12721;SDS011;6425;50.316;8.114;2023-08-07T17:48:00;1.9;;;1.3;;
12721;SDS011;6425;50.316;8.114;2023-08-07T17:51:00;2.5;;;1.1;;
12721;SDS011;6425;50.316;8.114;2023-08-07T17:54:00;2;;;1.4;;
12721;SDS011;6425;50.316;8.114;2023-08-07T17:57:00;2;;;1.4;;
12721;SDS011;6425;50.316;8.114;2023-08-07T18:00:00;1.3;;;1.2;;
12721;SDS011;6425;50.316;8.114;2023-08-07T18:03:00;1.3;;;1.2;;
12721;SDS011;6425;50.316;8.114;2023-08-07T18:06:00;2.4;;;1.3;;
12721;SDS011;6425;50.316;8.114;2023-08-07T18:09:00;1.7;;;1.2;;
12721;SDS011;6425;50.316;8.114;2023-08-07T18:12:00;1.7;;;1.2;;
12721;SDS011;6425;50.316;8.114;2023-08-07T18:15:00;4;;;1.4;;
12721;SDS011;6425;50.316;8.114;2023-08-07T18:18:00;4;;;1.4;;
12721;SDS011;6425;50.316;8.114;2023-08-07T18:21:00;2.7;;;1.3;;
12721;SDS011;6425;50.316;8.114;2023-08-07T18:24:00;1.8;;;1.2;;
12721;SDS011;6425;50.316;8.114;2023-08-07T18:27:00;1.8;;;1.2;;
12721;SDS011;6425;50.316;8.114;2023-08-07T18:30:00;2.3;;;1.4;;
12721;SDS011;6425;50.316;8.114;2023-08-07T18:33:00;2.3;;;1.4;;
12721;SDS011;6425;50.316;8.114;2023-08-07T18:36:00;2;;;1.2;;
12721;SDS011;6425;50.316;8.114;2023-08-07T18:39:00;2;;;1.4;;
12721;SDS011;6425;50.316;8.114;2023-08-07T18:42:00;2;;;1.4;;
12721;SDS011;6425;50.316;8.114;2023-08-07T18:45:00;1.8;;;1.2;;
12721;SDS011;6425;50.316;8.114;2023-08-07T18:48:00;1.8;;;1.2;;
12721;SDS011;6425;50.316;8.114;2023-08-07T18:51:00;2.2;;;1.2;;
12721;SDS011;6425;50.316;8.114;2023-08-07T18:54:00;2.3;;;1.2;;
12721;SDS011;6425;50.316;8.114;2023-08-07T18:57:00;2.3;;;1.2;;
12721;SDS011;6425;50.316;8.114;2023-08-07T19:00:00;3.8;;;1.3;;
12721;SDS011;6425;50.316;8.114;2023-08-07T19:03:00;3.8;;;1.3;;